sensor_id;sensor_type;location;lat;lon;timestamp;pressure;altitude;pressure_sealevel;temperature;humidity
13869;BME280;7004;48.206;16.402;2023-03-05T00:01:22;99730.22;;;3.50;62.53
13869;BME280;7004;48.206;16.402;2023-03-05T00:03:50;99744.09;;;3.27;62.75
13869;BME280;7004;48.206;16.402;2023-03-05T00:06:18;99729.03;;;3.34;62.91
13869;BME280;7004;48.206;16.402;2023-03-05T00:08:46;99725.94;;;2.96;63.45
13869;BME280;7004;48.206;16.402;2023-03-05T00:11:13;99725.53;;;3.35;63.14
13869;BME280;7004;48.206;16.402;2023-03-05T00:13:40;99725.34;;;3.14;64.41
13869;BME280;7004;48.206;16.402;2023-03-05T00:16:13;99719.59;;;3.03;63.13
13869;BME280;7004;48.206;16.402;2023-03-05T00:18:40;99731.88;;;3.27;62.89
13869;BME280;7004;48.206;16.402;2023-03-05T00:21:36;99726.69;;;3.26;63.81
13869;BME280;7004;48.206;16.402;2023-03-05T00:24:07;99718.03;;;2.97;64.22
13869;BME280;7004;48.206;16.402;2023-03-05T00:26:36;99719.59;;;3.03;64.29
13869;BME280;7004;48.206;16.402;2023-03-05T00:29:06;99724.19;;;3.23;63.07
13869;BME280;7004;48.206;16.402;2023-03-05T00:31:36;99720.06;;;3.16;62.63
13869;BME280;7004;48.206;16.402;2023-03-05T00:34:07;99717.19;;;3.23;63.08
13869;BME280;7004;48.206;16.402;2023-03-05T00:36:38;99715.34;;;3.27;63.51
13869;BME280;7004;48.206;16.402;2023-03-05T00:39:05;99715.75;;;3.40;62.75
13869;BME280;7004;48.206;16.402;2023-03-05T00:41:33;99712.88;;;3.22;62.94
13869;BME280;7004;48.206;16.402;2023-03-05T00:44:00;99701.56;;;2.95;64.69
13869;BME280;7004;48.206;16.402;2023-03-05T00:46:27;99707.47;;;3.02;64.80
13869;BME280;7004;48.206;16.402;2023-03-05T00:48:57;99693.91;;;2.91;65.37
13869;BME280;7004;48.206;16.402;2023-03-05T00:51:24;99697.91;;;3.27;63.72
13869;BME280;7004;48.206;16.402;2023-03-05T00:53:51;99700.22;;;3.10;63.56
13869;BME280;7004;48.206;16.402;2023-03-05T00:56:17;99694.75;;;3.18;64.69
13869;BME280;7004;48.206;16.402;2023-03-05T00:58:44;99700.88;;;3.17;64.89
13869;BME280;7004;48.206;16.402;2023-03-05T01:01:12;99696.00;;;3.33;63.89
13869;BME280;7004;48.206;16.402;2023-03-05T01:03:39;99690.06;;;3.27;64.02
13869;BME280;7004;48.206;16.402;2023-03-05T01:06:10;99686.13;;;3.41;64.13
13869;BME280;7004;48.206;16.402;2023-03-05T01:08:38;99688.84;;;3.38;64.18
13869;BME280;7004;48.206;16.402;2023-03-05T01:11:07;99681.47;;;3.24;63.82
13869;BME280;7004;48.206;16.402;2023-03-05T01:13:36;99674.91;;;3.12;65.07
13869;BME280;7004;48.206;16.402;2023-03-05T01:16:03;99669.88;;;3.06;64.63
13869;BME280;7004;48.206;16.402;2023-03-05T01:18:32;99674.50;;;3.24;64.62
13869;BME280;7004;48.206;16.402;2023-03-05T01:21:00;99670.81;;;3.03;65.13
13869;BME280;7004;48.206;16.402;2023-03-05T01:23:27;99672.41;;;3.34;64.50
13869;BME280;7004;48.206;16.402;2023-03-05T01:25:57;99680.72;;;3.20;64.97
13869;BME280;7004;48.206;16.402;2023-03-05T01:28:25;99666.44;;;3.31;64.14
13869;BME280;7004;48.206;16.402;2023-03-05T01:30:53;99667.91;;;3.13;64.82
13869;BME280;7004;48.206;16.402;2023-03-05T01:33:19;99665.19;;;3.16;64.45
13869;BME280;7004;48.206;16.402;2023-03-05T01:35:48;99662.72;;;3.38;64.49
13869;BME280;7004;48.206;16.402;2023-03-05T01:38:16;99667.25;;;3.33;64.18
13869;BME280;7004;48.206;16.402;2023-03-05T01:40:43;99658.34;;;3.38;64.31
13869;BME280;7004;48.206;16.402;2023-03-05T01:45:36;99658.97;;;3.20;64.72
13869;BME280;7004;48.206;16.402;2023-03-05T01:48:04;99656.63;;;3.37;63.99
13869;BME280;7004;48.206;16.402;2023-03-05T01:50:31;99662.50;;;3.44;64.21
13869;BME280;7004;48.206;16.402;2023-03-05T01:53:04;99661.38;;;3.26;64.91
13869;BME280;7004;48.206;16.402;2023-03-05T01:55:33;99665.25;;;3.39;64.62
13869;BME280;7004;48.206;16.402;2023-03-05T01:58:09;99660.09;;;3.38;64.63
13869;BME280;7004;48.206;16.402;2023-03-05T02:00:49;99662.34;;;3.48;64.92
13869;BME280;7004;48.206;16.402;2023-03-05T02:03:25;99653.31;;;3.07;65.50
13869;BME280;7004;48.206;16.402;2023-03-05T02:05:54;99656.00;;;3.31;64.94
13869;BME280;7004;48.206;16.402;2023-03-05T02:08:23;99657.72;;;3.05;65.90
13869;BME280;7004;48.206;16.402;2023-03-05T02:10:53;99658.03;;;3.22;64.64
13869;BME280;7004;48.206;16.402;2023-03-05T02:13:25;99659.53;;;3.30;65.42
13869;BME280;7004;48.206;16.402;2023-03-05T02:15:59;99647.84;;;3.15;66.28
13869;BME280;7004;48.206;16.402;2023-03-05T02:18:27;99649.09;;;3.03;65.86
13869;BME280;7004;48.206;16.402;2023-03-05T02:23:29;99640.84;;;3.15;66.33
13869;BME280;7004;48.206;16.402;2023-03-05T02:25:59;99640.00;;;3.15;66.57
13869;BME280;7004;48.206;16.402;2023-03-05T02:31:12;99645.16;;;3.41;66.84
13869;BME280;7004;48.206;16.402;2023-03-05T02:33:39;99643.50;;;3.14;67.46
13869;BME280;7004;48.206;16.402;2023-03-05T02:36:07;99645.75;;;3.24;66.64
13869;BME280;7004;48.206;16.402;2023-03-05T02:38:34;99640.88;;;3.14;66.90
13869;BME280;7004;48.206;16.402;2023-03-05T02:41:01;99631.66;;;3.03;67.35
13869;BME280;7004;48.206;16.402;2023-03-05T02:43:27;99632.69;;;2.99;68.41
13869;BME280;7004;48.206;16.402;2023-03-05T02:45:54;99629.81;;;3.07;67.30
13869;BME280;7004;48.206;16.402;2023-03-05T02:48:21;99632.63;;;3.26;67.61
13869;BME280;7004;48.206;16.402;2023-03-05T02:50:48;99634.28;;;3.28;67.60
13869;BME280;7004;48.206;16.402;2023-03-05T02:53:14;99631.13;;;3.19;67.02
13869;BME280;7004;48.206;16.402;2023-03-05T02:55:41;99624.31;;;3.15;67.15
13869;BME280;7004;48.206;16.402;2023-03-05T02:58:08;99631.78;;;3.25;67.19
13869;BME280;7004;48.206;16.402;2023-03-05T03:00:35;99621.34;;;3.25;66.78
13869;BME280;7004;48.206;16.402;2023-03-05T03:03:02;99624.25;;;3.41;65.72
13869;BME280;7004;48.206;16.402;2023-03-05T03:05:29;99621.59;;;3.43;66.75
13869;BME280;7004;48.206;16.402;2023-03-05T03:07:55;99616.84;;;3.29;66.23
13869;BME280;7004;48.206;16.402;2023-03-05T03:10:23;99617.59;;;3.33;66.19
13869;BME280;7004;48.206;16.402;2023-03-05T03:12:55;99617.09;;;3.46;65.52
13869;BME280;7004;48.206;16.402;2023-03-05T03:15:22;99613.50;;;3.25;66.63
13869;BME280;7004;48.206;16.402;2023-03-05T03:17:49;99607.28;;;3.30;66.83
13869;BME280;7004;48.206;16.402;2023-03-05T03:20:18;99622.06;;;3.29;66.37
13869;BME280;7004;48.206;16.402;2023-03-05T03:22:46;99610.16;;;3.22;67.08
13869;BME280;7004;48.206;16.402;2023-03-05T03:25:20;99610.47;;;3.13;67.26
13869;BME280;7004;48.206;16.402;2023-03-05T03:27:46;99606.75;;;3.43;66.02
13869;BME280;7004;48.206;16.402;2023-03-05T03:30:13;99604.81;;;3.25;66.87
13869;BME280;7004;48.206;16.402;2023-03-05T03:32:41;99600.38;;;3.27;67.14
13869;BME280;7004;48.206;16.402;2023-03-05T03:35:08;99598.28;;;3.37;65.98
13869;BME280;7004;48.206;16.402;2023-03-05T03:37:37;99604.13;;;3.20;66.71
13869;BME280;7004;48.206;16.402;2023-03-05T03:40:05;99598.41;;;3.34;66.61
13869;BME280;7004;48.206;16.402;2023-03-05T03:42:32;99602.81;;;3.32;66.37
13869;BME280;7004;48.206;16.402;2023-03-05T03:44:59;99612.19;;;3.37;66.39
13869;BME280;7004;48.206;16.402;2023-03-05T03:47:29;99605.38;;;3.33;66.91
13869;BME280;7004;48.206;16.402;2023-03-05T03:49:55;99609.28;;;3.21;67.43
13869;BME280;7004;48.206;16.402;2023-03-05T03:52:22;99605.66;;;3.25;66.86
13869;BME280;7004;48.206;16.402;2023-03-05T03:54:49;99610.09;;;3.47;65.96
13869;BME280;7004;48.206;16.402;2023-03-05T03:57:18;99606.22;;;3.34;66.93
13869;BME280;7004;48.206;16.402;2023-03-05T03:59:44;99602.84;;;3.55;66.70
13869;BME280;7004;48.206;16.402;2023-03-05T04:02:11;99603.53;;;3.60;66.59
13869;BME280;7004;48.206;16.402;2023-03-05T04:04:37;99598.63;;;3.27;67.42
13869;BME280;7004;48.206;16.402;2023-03-05T04:07:04;99596.97;;;3.25;67.79
13869;BME280;7004;48.206;16.402;2023-03-05T04:09:30;99602.03;;;3.30;68.27
13869;BME280;7004;48.206;16.402;2023-03-05T04:11:57;99593.25;;;3.07;68.24
13869;BME280;7004;48.206;16.402;2023-03-05T04:14:24;99600.28;;;3.30;68.40
13869;BME280;7004;48.206;16.402;2023-03-05T04:16:51;99591.06;;;3.20;68.21
13869;BME280;7004;48.206;16.402;2023-03-05T04:19:18;99591.69;;;3.26;68.62
13869;BME280;7004;48.206;16.402;2023-03-05T04:21:45;99590.09;;;3.22;68.23
13869;BME280;7004;48.206;16.402;2023-03-05T04:24:12;99584.72;;;3.27;68.57
13869;BME280;7004;48.206;16.402;2023-03-05T04:26:39;99589.56;;;3.38;67.59
13869;BME280;7004;48.206;16.402;2023-03-05T04:29:05;99587.28;;;3.52;67.65
13869;BME280;7004;48.206;16.402;2023-03-05T04:31:32;99576.53;;;3.36;68.34
13869;BME280;7004;48.206;16.402;2023-03-05T04:33:59;99584.06;;;3.45;67.64
13869;BME280;7004;48.206;16.402;2023-03-05T04:36:27;99582.25;;;3.71;67.06
13869;BME280;7004;48.206;16.402;2023-03-05T04:38:53;99582.72;;;3.57;67.46
13869;BME280;7004;48.206;16.402;2023-03-05T04:41:20;99580.69;;;3.42;69.07
13869;BME280;7004;48.206;16.402;2023-03-05T04:43:46;99569.66;;;3.57;68.72
13869;BME280;7004;48.206;16.402;2023-03-05T04:46:12;99564.38;;;3.59;68.45
13869;BME280;7004;48.206;16.402;2023-03-05T04:48:39;99575.56;;;3.39;69.15
13869;BME280;7004;48.206;16.402;2023-03-05T04:51:06;99565.97;;;3.63;68.74
13869;BME280;7004;48.206;16.402;2023-03-05T04:53:33;99569.41;;;3.40;68.30
13869;BME280;7004;48.206;16.402;2023-03-05T04:55:59;99571.41;;;3.33;69.33
13869;BME280;7004;48.206;16.402;2023-03-05T04:58:28;99566.31;;;3.30;69.57
13869;BME280;7004;48.206;16.402;2023-03-05T05:01:04;99560.94;;;3.58;69.13
13869;BME280;7004;48.206;16.402;2023-03-05T05:03:31;99573.22;;;3.31;69.56
13869;BME280;7004;48.206;16.402;2023-03-05T05:05:59;99570.00;;;3.24;70.02
13869;BME280;7004;48.206;16.402;2023-03-05T05:08:27;99578.88;;;3.44;69.52
13869;BME280;7004;48.206;16.402;2023-03-05T05:11:06;99566.91;;;3.13;70.74
13869;BME280;7004;48.206;16.402;2023-03-05T05:13:33;99561.84;;;3.09;70.52
13869;BME280;7004;48.206;16.402;2023-03-05T05:16:01;99566.03;;;3.38;69.29
13869;BME280;7004;48.206;16.402;2023-03-05T05:18:30;99567.72;;;3.39;69.38
13869;BME280;7004;48.206;16.402;2023-03-05T05:20:57;99566.75;;;3.41;69.39
13869;BME280;7004;48.206;16.402;2023-03-05T05:23:24;99557.28;;;3.62;69.42
13869;BME280;7004;48.206;16.402;2023-03-05T05:25:59;99555.63;;;3.36;69.58
13869;BME280;7004;48.206;16.402;2023-03-05T05:28:28;99547.84;;;3.58;69.18
13869;BME280;7004;48.206;16.402;2023-03-05T05:30:56;99553.59;;;3.44;69.55
13869;BME280;7004;48.206;16.402;2023-03-05T05:33:23;99554.53;;;3.42;69.55
13869;BME280;7004;48.206;16.402;2023-03-05T05:35:49;99560.94;;;3.35;69.49
13869;BME280;7004;48.206;16.402;2023-03-05T05:38:16;99563.44;;;3.38;69.83
13869;BME280;7004;48.206;16.402;2023-03-05T05:40:44;99559.72;;;3.43;69.71
13869;BME280;7004;48.206;16.402;2023-03-05T05:43:11;99562.91;;;3.28;69.98
13869;BME280;7004;48.206;16.402;2023-03-05T05:45:39;99564.59;;;3.53;69.59
13869;BME280;7004;48.206;16.402;2023-03-05T05:48:05;99560.56;;;3.20;70.21
13869;BME280;7004;48.206;16.402;2023-03-05T05:50:32;99555.69;;;3.35;69.50
13869;BME280;7004;48.206;16.402;2023-03-05T05:52:58;99556.84;;;3.51;69.92
13869;BME280;7004;48.206;16.402;2023-03-05T05:55:25;99559.44;;;3.27;71.12
13869;BME280;7004;48.206;16.402;2023-03-05T05:57:51;99550.06;;;3.69;69.54
13869;BME280;7004;48.206;16.402;2023-03-05T06:00:18;99556.31;;;3.41;70.35
13869;BME280;7004;48.206;16.402;2023-03-05T06:02:45;99566.88;;;3.38;70.51
13869;BME280;7004;48.206;16.402;2023-03-05T06:05:13;99561.69;;;3.37;70.69
13869;BME280;7004;48.206;16.402;2023-03-05T06:07:40;99559.84;;;3.64;70.40
13869;BME280;7004;48.206;16.402;2023-03-05T06:10:08;99560.44;;;3.47;70.42
13869;BME280;7004;48.206;16.402;2023-03-05T06:12:35;99561.94;;;3.31;70.88
13869;BME280;7004;48.206;16.402;2023-03-05T06:15:01;99571.88;;;3.44;70.39
13869;BME280;7004;48.206;16.402;2023-03-05T06:17:28;99570.75;;;3.52;69.96
13869;BME280;7004;48.206;16.402;2023-03-05T06:19:55;99563.75;;;3.52;70.25
13869;BME280;7004;48.206;16.402;2023-03-05T06:22:21;99566.84;;;3.63;69.29
13869;BME280;7004;48.206;16.402;2023-03-05T06:24:47;99572.78;;;3.67;68.99
13869;BME280;7004;48.206;16.402;2023-03-05T06:27:13;99562.94;;;3.26;70.48
13869;BME280;7004;48.206;16.402;2023-03-05T06:29:40;99561.81;;;3.34;70.20
13869;BME280;7004;48.206;16.402;2023-03-05T06:32:06;99571.59;;;3.52;70.27
13869;BME280;7004;48.206;16.402;2023-03-05T06:34:33;99564.50;;;3.79;69.72
13869;BME280;7004;48.206;16.402;2023-03-05T06:36:59;99569.91;;;3.51;70.36
13869;BME280;7004;48.206;16.402;2023-03-05T06:39:25;99567.44;;;3.70;68.95
13869;BME280;7004;48.206;16.402;2023-03-05T06:41:51;99565.22;;;3.83;69.70
13869;BME280;7004;48.206;16.402;2023-03-05T06:44:18;99564.66;;;3.75;69.54
13869;BME280;7004;48.206;16.402;2023-03-05T06:46:44;99562.38;;;3.65;69.51
13869;BME280;7004;48.206;16.402;2023-03-05T06:49:13;99557.16;;;3.65;69.67
13869;BME280;7004;48.206;16.402;2023-03-05T06:51:40;99548.41;;;3.66;70.39
13869;BME280;7004;48.206;16.402;2023-03-05T06:54:13;99551.25;;;3.60;70.08
13869;BME280;7004;48.206;16.402;2023-03-05T06:56:45;99553.81;;;3.62;70.10
13869;BME280;7004;48.206;16.402;2023-03-05T06:59:13;99556.16;;;3.91;68.79
13869;BME280;7004;48.206;16.402;2023-03-05T07:01:40;99559.31;;;3.54;69.82
13869;BME280;7004;48.206;16.402;2023-03-05T07:04:07;99564.00;;;3.91;69.33
13869;BME280;7004;48.206;16.402;2023-03-05T07:06:35;99569.50;;;3.62;69.94
13869;BME280;7004;48.206;16.402;2023-03-05T07:09:06;99568.25;;;3.72;69.70
13869;BME280;7004;48.206;16.402;2023-03-05T07:11:33;99571.13;;;3.88;69.30
13869;BME280;7004;48.206;16.402;2023-03-05T07:14:00;99564.50;;;3.79;70.80
13869;BME280;7004;48.206;16.402;2023-03-05T07:16:30;99561.72;;;4.06;69.33
13869;BME280;7004;48.206;16.402;2023-03-05T07:18:59;99561.13;;;3.76;70.38
13869;BME280;7004;48.206;16.402;2023-03-05T07:21:31;99549.06;;;3.95;69.21
13869;BME280;7004;48.206;16.402;2023-03-05T07:23:59;99557.72;;;3.97;69.41
13869;BME280;7004;48.206;16.402;2023-03-05T07:26:26;99552.78;;;3.89;70.18
13869;BME280;7004;48.206;16.402;2023-03-05T07:28:54;99565.88;;;3.66;70.35
13869;BME280;7004;48.206;16.402;2023-03-05T07:31:23;99554.47;;;3.90;70.55
13869;BME280;7004;48.206;16.402;2023-03-05T07:33:57;99554.03;;;4.01;68.83
13869;BME280;7004;48.206;16.402;2023-03-05T07:36:24;99555.38;;;4.11;68.85
13869;BME280;7004;48.206;16.402;2023-03-05T07:38:51;99546.22;;;4.23;68.20
13869;BME280;7004;48.206;16.402;2023-03-05T07:41:18;99544.41;;;4.02;69.97
13869;BME280;7004;48.206;16.402;2023-03-05T07:43:49;99545.88;;;4.09;68.71
13869;BME280;7004;48.206;16.402;2023-03-05T07:46:17;99551.22;;;4.28;67.75
13869;BME280;7004;48.206;16.402;2023-03-05T07:48:44;99548.69;;;4.26;67.63
13869;BME280;7004;48.206;16.402;2023-03-05T07:51:14;99543.28;;;4.31;67.54
13869;BME280;7004;48.206;16.402;2023-03-05T07:53:42;99550.22;;;4.32;67.80
13869;BME280;7004;48.206;16.402;2023-03-05T07:56:09;99543.03;;;4.15;67.63
13869;BME280;7004;48.206;16.402;2023-03-05T07:58:36;99544.88;;;4.13;67.62
13869;BME280;7004;48.206;16.402;2023-03-05T08:01:03;99549.41;;;3.86;68.20
13869;BME280;7004;48.206;16.402;2023-03-05T08:03:30;99544.38;;;4.03;67.88
13869;BME280;7004;48.206;16.402;2023-03-05T08:05:56;99533.16;;;4.22;67.15
13869;BME280;7004;48.206;16.402;2023-03-05T08:08:23;99537.13;;;4.32;67.65
13869;BME280;7004;48.206;16.402;2023-03-05T08:10:49;99534.91;;;4.43;67.29
13869;BME280;7004;48.206;16.402;2023-03-05T08:13:16;99535.53;;;4.28;66.99
13869;BME280;7004;48.206;16.402;2023-03-05T08:15:42;99531.84;;;3.89;68.36
13869;BME280;7004;48.206;16.402;2023-03-05T08:18:08;99534.28;;;4.16;68.01
13869;BME280;7004;48.206;16.402;2023-03-05T08:20:35;99533.34;;;4.39;66.98
13869;BME280;7004;48.206;16.402;2023-03-05T08:23:02;99531.94;;;4.30;67.45
13869;BME280;7004;48.206;16.402;2023-03-05T08:25:28;99528.00;;;3.98;67.38
13869;BME280;7004;48.206;16.402;2023-03-05T08:27:55;99529.75;;;4.20;68.08
13869;BME280;7004;48.206;16.402;2023-03-05T08:30:23;99538.41;;;4.22;67.78
13869;BME280;7004;48.206;16.402;2023-03-05T08:32:52;99530.97;;;4.33;67.29
13869;BME280;7004;48.206;16.402;2023-03-05T08:35:19;99525.06;;;4.28;66.97
13869;BME280;7004;48.206;16.402;2023-03-05T08:37:47;99527.16;;;4.62;66.37
13869;BME280;7004;48.206;16.402;2023-03-05T08:40:14;99528.16;;;4.80;65.98
13869;BME280;7004;48.206;16.402;2023-03-05T08:42:43;99528.25;;;4.36;66.24
13869;BME280;7004;48.206;16.402;2023-03-05T08:45:10;99520.84;;;4.87;65.02
13869;BME280;7004;48.206;16.402;2023-03-05T08:47:36;99532.59;;;4.57;65.46
13869;BME280;7004;48.206;16.402;2023-03-05T08:50:03;99533.47;;;4.36;65.96
13869;BME280;7004;48.206;16.402;2023-03-05T08:52:30;99531.16;;;4.71;65.39
13869;BME280;7004;48.206;16.402;2023-03-05T08:54:56;99529.13;;;4.77;64.67
13869;BME280;7004;48.206;16.402;2023-03-05T08:57:22;99533.94;;;4.46;66.00
13869;BME280;7004;48.206;16.402;2023-03-05T08:59:49;99524.66;;;4.38;66.46
13869;BME280;7004;48.206;16.402;2023-03-05T09:02:16;99515.94;;;4.58;66.07
13869;BME280;7004;48.206;16.402;2023-03-05T09:04:42;99517.13;;;4.72;65.76
13869;BME280;7004;48.206;16.402;2023-03-05T09:07:09;99515.47;;;5.10;65.02
13869;BME280;7004;48.206;16.402;2023-03-05T09:09:36;99517.53;;;4.83;65.31
13869;BME280;7004;48.206;16.402;2023-03-05T09:12:02;99511.47;;;5.22;63.80
13869;BME280;7004;48.206;16.402;2023-03-05T09:14:29;99519.47;;;5.57;62.75
13869;BME280;7004;48.206;16.402;2023-03-05T09:16:56;99523.25;;;5.12;63.42
13869;BME280;7004;48.206;16.402;2023-03-05T09:19:23;99518.72;;;5.15;63.09
13869;BME280;7004;48.206;16.402;2023-03-05T09:21:50;99514.13;;;4.81;63.30
13869;BME280;7004;48.206;16.402;2023-03-05T09:24:16;99510.69;;;5.39;62.41
13869;BME280;7004;48.206;16.402;2023-03-05T09:26:43;99514.25;;;5.95;61.37
13869;BME280;7004;48.206;16.402;2023-03-05T09:29:09;99507.19;;;6.14;60.23
13869;BME280;7004;48.206;16.402;2023-03-05T09:31:37;99510.47;;;5.62;61.56
13869;BME280;7004;48.206;16.402;2023-03-05T09:34:04;99501.69;;;5.82;61.20
13869;BME280;7004;48.206;16.402;2023-03-05T09:36:32;99502.25;;;5.70;61.88
13869;BME280;7004;48.206;16.402;2023-03-05T09:38:58;99509.84;;;5.57;61.69
13869;BME280;7004;48.206;16.402;2023-03-05T09:44:46;99511.66;;;5.93;60.99
13869;BME280;7004;48.206;16.402;2023-03-05T09:51:01;99504.38;;;5.81;60.78
13869;BME280;7004;48.206;16.402;2023-03-05T09:56:35;99509.34;;;5.68;60.66
13869;BME280;7004;48.206;16.402;2023-03-05T10:02:36;99490.50;;;5.79;59.11
13869;BME280;7004;48.206;16.402;2023-03-05T10:05:23;99496.78;;;5.75;59.89
13869;BME280;7004;48.206;16.402;2023-03-05T10:08:03;99492.91;;;6.20;58.42
13869;BME280;7004;48.206;16.402;2023-03-05T10:10:54;99498.53;;;6.99;55.81
13869;BME280;7004;48.206;16.402;2023-03-05T10:13:33;99487.28;;;6.45;57.69
13869;BME280;7004;48.206;16.402;2023-03-05T10:19:40;99478.53;;;6.79;55.75
13869;BME280;7004;48.206;16.402;2023-03-05T10:22:18;99481.47;;;6.90;55.56
13869;BME280;7004;48.206;16.402;2023-03-05T10:28:01;99476.78;;;6.62;56.25
13869;BME280;7004;48.206;16.402;2023-03-05T10:33:41;99460.59;;;6.87;56.01
13869;BME280;7004;48.206;16.402;2023-03-05T10:40:07;99449.63;;;6.96;55.79
13869;BME280;7004;48.206;16.402;2023-03-05T10:42:44;99456.72;;;6.94;55.25
13869;BME280;7004;48.206;16.402;2023-03-05T10:45:38;99456.31;;;6.69;55.82
13869;BME280;7004;48.206;16.402;2023-03-05T10:48:30;99451.63;;;6.91;53.86
13869;BME280;7004;48.206;16.402;2023-03-05T10:53:58;99436.69;;;7.41;53.16
13869;BME280;7004;48.206;16.402;2023-03-05T10:56:28;99437.22;;;7.32;53.47
13869;BME280;7004;48.206;16.402;2023-03-05T10:58:56;99441.16;;;7.07;53.05
13869;BME280;7004;48.206;16.402;2023-03-05T11:01:27;99434.38;;;7.82;51.67
13869;BME280;7004;48.206;16.402;2023-03-05T11:04:24;99431.34;;;7.11;51.95
13869;BME280;7004;48.206;16.402;2023-03-05T11:06:51;99433.38;;;7.85;51.15
13869;BME280;7004;48.206;16.402;2023-03-05T11:14:47;99417.63;;;7.21;51.18
13869;BME280;7004;48.206;16.402;2023-03-05T11:17:37;99413.56;;;7.32;51.15
13869;BME280;7004;48.206;16.402;2023-03-05T11:20:34;99405.38;;;7.36;51.48
13869;BME280;7004;48.206;16.402;2023-03-05T11:23:22;99396.25;;;7.28;52.40
13869;BME280;7004;48.206;16.402;2023-03-05T11:26:17;99400.88;;;7.07;52.70
13869;BME280;7004;48.206;16.402;2023-03-05T11:29:17;99391.75;;;7.14;51.77
13869;BME280;7004;48.206;16.402;2023-03-05T11:31:43;99393.47;;;6.97;51.91
13869;BME280;7004;48.206;16.402;2023-03-05T11:39:16;99396.19;;;6.80;51.14
13869;BME280;7004;48.206;16.402;2023-03-05T11:42:15;99383.09;;;6.63;51.95
13869;BME280;7004;48.206;16.402;2023-03-05T11:44:54;99372.03;;;7.05;51.28
13869;BME280;7004;48.206;16.402;2023-03-05T11:47:47;99380.19;;;6.51;53.04
13869;BME280;7004;48.206;16.402;2023-03-05T11:50:33;99369.38;;;6.73;52.87
13869;BME280;7004;48.206;16.402;2023-03-05T11:53:21;99374.91;;;6.85;53.30
13869;BME280;7004;48.206;16.402;2023-03-05T11:56:26;99363.03;;;6.62;54.07
13869;BME280;7004;48.206;16.402;2023-03-05T12:01:51;99371.59;;;6.48;54.53
13869;BME280;7004;48.206;16.402;2023-03-05T12:04:19;99361.03;;;6.49;54.36
13869;BME280;7004;48.206;16.402;2023-03-05T12:06:59;99367.50;;;6.60;54.06
13869;BME280;7004;48.206;16.402;2023-03-05T12:09:39;99360.63;;;6.57;53.62
13869;BME280;7004;48.206;16.402;2023-03-05T12:18:49;99372.56;;;6.12;53.63
13869;BME280;7004;48.206;16.402;2023-03-05T12:21:37;99368.63;;;6.03;54.18
13869;BME280;7004;48.206;16.402;2023-03-05T12:29:43;99367.97;;;5.81;54.81
13869;BME280;7004;48.206;16.402;2023-03-05T12:35:36;99362.59;;;5.84;54.71
13869;BME280;7004;48.206;16.402;2023-03-05T12:38:28;99350.81;;;6.10;54.99
13869;BME280;7004;48.206;16.402;2023-03-05T12:46:32;99340.72;;;6.02;54.63
13869;BME280;7004;48.206;16.402;2023-03-05T12:51:56;99348.56;;;5.48;56.53
13869;BME280;7004;48.206;16.402;2023-03-05T12:54:34;99350.69;;;5.23;56.38
13869;BME280;7004;48.206;16.402;2023-03-05T12:57:17;99348.47;;;5.33;56.90
13869;BME280;7004;48.206;16.402;2023-03-05T12:59:59;99350.00;;;5.37;56.50
13869;BME280;7004;48.206;16.402;2023-03-05T13:02:41;99353.66;;;5.15;57.45
13869;BME280;7004;48.206;16.402;2023-03-05T13:05:37;99345.94;;;5.12;56.27
13869;BME280;7004;48.206;16.402;2023-03-05T13:08:30;99348.25;;;5.37;55.17
13869;BME280;7004;48.206;16.402;2023-03-05T13:11:04;99344.69;;;5.02;56.54
13869;BME280;7004;48.206;16.402;2023-03-05T13:13:39;99345.88;;;5.14;55.74
13869;BME280;7004;48.206;16.402;2023-03-05T13:16:28;99353.72;;;5.33;55.34
13869;BME280;7004;48.206;16.402;2023-03-05T13:18:58;99350.97;;;4.98;55.60
13869;BME280;7004;48.206;16.402;2023-03-05T13:21:31;99344.44;;;5.25;55.17
13869;BME280;7004;48.206;16.402;2023-03-05T13:24:01;99353.94;;;5.28;53.97
13869;BME280;7004;48.206;16.402;2023-03-05T13:26:40;99357.72;;;5.03;54.43
13869;BME280;7004;48.206;16.402;2023-03-05T13:29:22;99343.16;;;5.15;54.15
13869;BME280;7004;48.206;16.402;2023-03-05T13:32:10;99344.09;;;4.95;54.44
13869;BME280;7004;48.206;16.402;2023-03-05T13:34:44;99345.66;;;5.18;54.04
13869;BME280;7004;48.206;16.402;2023-03-05T13:37:30;99341.41;;;5.16;54.54
13869;BME280;7004;48.206;16.402;2023-03-05T13:40:28;99345.72;;;4.98;53.63
13869;BME280;7004;48.206;16.402;2023-03-05T13:43:10;99336.78;;;5.21;53.35
13869;BME280;7004;48.206;16.402;2023-03-05T13:45:40;99335.25;;;5.17;53.25
13869;BME280;7004;48.206;16.402;2023-03-05T13:48:19;99336.38;;;5.30;53.11
13869;BME280;7004;48.206;16.402;2023-03-05T13:50:56;99337.78;;;5.37;52.04
13869;BME280;7004;48.206;16.402;2023-03-05T13:53:32;99329.59;;;5.07;53.12
13869;BME280;7004;48.206;16.402;2023-03-05T13:56:06;99327.66;;;5.30;52.55
13869;BME280;7004;48.206;16.402;2023-03-05T13:58:54;99327.38;;;4.98;51.77
13869;BME280;7004;48.206;16.402;2023-03-05T14:09:41;99315.16;;;4.98;52.20
13869;BME280;7004;48.206;16.402;2023-03-05T14:12:40;99311.91;;;4.93;52.34
13869;BME280;7004;48.206;16.402;2023-03-05T14:15:34;99309.56;;;5.06;51.93
13869;BME280;7004;48.206;16.402;2023-03-05T14:18:27;99299.56;;;4.95;51.93
13869;BME280;7004;48.206;16.402;2023-03-05T14:21:04;99297.22;;;5.27;52.29
13869;BME280;7004;48.206;16.402;2023-03-05T14:36:54;99298.91;;;5.63;51.45
13869;BME280;7004;48.206;16.402;2023-03-05T14:42:29;99287.56;;;5.28;51.29
13869;BME280;7004;48.206;16.402;2023-03-05T14:47:39;99283.25;;;5.44;50.68
13869;BME280;7004;48.206;16.402;2023-03-05T14:50:09;99287.16;;;5.18;51.54
13869;BME280;7004;48.206;16.402;2023-03-05T14:52:40;99290.88;;;5.14;51.15
13869;BME280;7004;48.206;16.402;2023-03-05T14:55:18;99279.81;;;5.07;50.84
13869;BME280;7004;48.206;16.402;2023-03-05T14:57:46;99279.66;;;5.10;50.60
13869;BME280;7004;48.206;16.402;2023-03-05T15:00:20;99278.72;;;5.30;50.95
13869;BME280;7004;48.206;16.402;2023-03-05T15:02:48;99271.06;;;5.25;51.95
13869;BME280;7004;48.206;16.402;2023-03-05T15:05:16;99271.38;;;5.19;51.88
13869;BME280;7004;48.206;16.402;2023-03-05T15:07:44;99264.50;;;5.34;51.25
13869;BME280;7004;48.206;16.402;2023-03-05T15:10:17;99266.66;;;5.26;51.04
13869;BME280;7004;48.206;16.402;2023-03-05T15:12:45;99267.44;;;5.28;52.27